createdAt,value
2019-02-08T00:01:14.528Z,90.50
2019-02-08T00:03:44.064Z,90.40
2019-02-08T00:06:13.199Z,90.40
2019-02-08T00:08:42.340Z,90.40
2019-02-08T00:11:11.494Z,90.80
2019-02-08T00:13:40.634Z,90.70
2019-02-08T00:16:09.859Z,90.60
2019-02-08T00:18:38.984Z,90.70
2019-02-08T00:21:08.242Z,90.50
2019-02-08T00:23:37.460Z,90.60
2019-02-08T00:26:06.608Z,90.40
2019-02-08T00:28:35.828Z,90.40
2019-02-08T00:31:05.767Z,90.40
2019-02-08T00:33:34.911Z,90.50
2019-02-08T00:36:04.540Z,90.70
2019-02-08T00:38:33.753Z,90.40
2019-02-08T00:41:03.027Z,90.70
2019-02-08T00:43:32.169Z,90.80
2019-02-08T00:46:01.303Z,90.30
2019-02-08T00:48:30.446Z,90.20
2019-02-08T00:50:59.739Z,90.10
2019-02-08T00:53:33.350Z,90.10
2019-02-08T00:55:59.879Z,89.80
2019-02-08T00:58:29.026Z,89.60
2019-02-08T01:00:58.176Z,89.80
2019-02-08T01:03:27.333Z,89.50
2019-02-08T01:05:56.504Z,89.60
2019-02-08T01:08:25.901Z,89.80
2019-02-08T01:10:55.083Z,89.70
2019-02-08T01:13:24.264Z,89.70
2019-02-08T01:15:53.587Z,89.30
2019-02-08T01:18:22.852Z,89.30
2019-02-08T01:20:52.009Z,90.10
2019-02-08T01:23:21.448Z,89.60
2019-02-08T01:25:50.647Z,89.70
2019-02-08T01:28:19.808Z,89.70
2019-02-08T01:30:48.952Z,89.30
2019-02-08T01:33:18.196Z,89.40
2019-02-08T01:35:47.356Z,89.90
2019-02-08T01:38:16.500Z,89.80
2019-02-08T01:40:45.629Z,89.40
2019-02-08T01:43:15.031Z,88.60
2019-02-08T01:45:44.180Z,88.10
2019-02-08T01:48:13.377Z,88.90
2019-02-08T01:50:42.533Z,89.20
2019-02-08T01:53:11.691Z,89.50
2019-02-08T01:55:40.848Z,88.70
2019-02-08T01:58:10.007Z,88.90
2019-02-08T02:00:41.158Z,88.40
2019-02-08T02:03:11.089Z,86.70
2019-02-08T02:05:40.788Z,86.90
2019-02-08T02:08:10.003Z,86.90
2019-02-08T02:10:41.436Z,86.90
2019-02-08T02:13:11.933Z,87.00
2019-02-08T02:15:41.515Z,86.90
2019-02-08T02:18:12.391Z,87.20
2019-02-08T02:20:43.118Z,87.00
2019-02-08T02:23:14.534Z,87.40
2019-02-08T02:25:43.984Z,87.60
2019-02-08T02:28:13.192Z,88.60
2019-02-08T02:30:42.360Z,87.90
2019-02-08T02:33:12.391Z,87.00
2019-02-08T02:35:41.643Z,87.00
2019-02-08T02:38:10.787Z,87.30
2019-02-08T02:40:40.696Z,87.30
2019-02-08T02:43:10.322Z,86.80
2019-02-08T02:45:40.431Z,87.30
2019-02-08T02:48:12.358Z,87.70
2019-02-08T02:50:41.921Z,87.80
2019-02-08T02:53:11.652Z,87.40
2019-02-08T02:55:40.912Z,87.90
2019-02-08T02:58:10.081Z,87.00
2019-02-08T03:00:42.074Z,86.70
2019-02-08T03:03:12.564Z,86.60
2019-02-08T03:05:41.731Z,87.00
2019-02-08T03:08:11.933Z,87.20
2019-02-08T03:10:41.293Z,86.80
2019-02-08T03:13:11.149Z,87.50
2019-02-08T03:15:40.565Z,87.40
2019-02-08T03:18:10.100Z,87.70
2019-02-08T03:20:39.263Z,86.40
2019-02-08T03:23:08.436Z,86.50
2019-02-08T03:25:37.629Z,86.70
2019-02-08T03:28:06.804Z,87.00
2019-02-08T03:31:04.320Z,87.70
2019-02-08T03:33:33.527Z,87.60
2019-02-08T03:36:02.672Z,87.90
2019-02-08T03:38:31.864Z,87.70
2019-02-08T03:41:01.045Z,87.40
2019-02-08T03:43:30.510Z,86.50
2019-02-08T03:45:59.664Z,86.30
2019-02-08T03:48:28.838Z,87.00
2019-02-08T03:50:57.994Z,87.10
2019-02-08T03:53:27.338Z,87.20
2019-02-08T03:55:58.316Z,86.10
2019-02-08T03:58:27.513Z,85.60
2019-02-08T04:01:04.954Z,85.60
2019-02-08T04:03:34.300Z,85.70
2019-02-08T04:06:03.696Z,86.40
2019-02-08T04:08:32.864Z,86.60
2019-02-08T04:11:02.050Z,87.20
2019-02-08T04:13:31.760Z,86.90
2019-02-08T04:16:00.922Z,86.20
2019-02-08T04:18:30.362Z,86.10
2019-02-08T04:20:59.492Z,85.80
2019-02-08T04:23:28.655Z,85.70
2019-02-08T04:25:57.788Z,85.30
2019-02-08T04:28:26.960Z,84.80
2019-02-08T04:30:56.107Z,84.30
2019-02-08T04:33:25.248Z,84.60
2019-02-08T04:35:54.504Z,83.90
2019-02-08T04:38:23.736Z,84.00
2019-02-08T04:40:52.888Z,84.30
2019-02-08T04:43:22.296Z,84.70
2019-02-08T04:45:51.706Z,83.70
2019-02-08T04:48:20.869Z,84.40
2019-02-08T04:50:50.022Z,83.80
2019-02-08T04:53:19.160Z,83.90
2019-02-08T04:55:48.305Z,84.20
2019-02-08T04:58:17.443Z,84.70
2019-02-08T05:00:46.616Z,85.30
2019-02-08T05:03:15.759Z,85.30
2019-02-08T05:05:44.914Z,85.80
2019-02-08T05:08:14.038Z,83.80
2019-02-08T05:10:43.221Z,84.40
2019-02-08T05:13:12.656Z,84.20
2019-02-08T05:15:41.821Z,84.50
2019-02-08T05:18:11.032Z,82.90
2019-02-08T05:20:59.344Z,82.70
2019-02-08T05:23:28.489Z,82.30
2019-02-08T05:25:57.621Z,82.00
2019-02-08T05:28:26.881Z,82.20
2019-02-08T05:30:56.054Z,82.10
2019-02-08T05:33:25.188Z,81.70
2019-02-08T05:35:54.388Z,81.80
2019-02-08T05:38:23.553Z,81.50
2019-02-08T05:40:52.705Z,81.10
2019-02-08T05:43:21.844Z,81.20
2019-02-08T05:45:51.111Z,80.90
2019-02-08T05:48:20.270Z,81.90
2019-02-08T05:50:49.515Z,81.30
2019-02-08T05:53:18.663Z,81.70
2019-02-08T05:55:47.802Z,81.30
2019-02-08T05:58:16.962Z,81.00
2019-02-08T06:00:55.328Z,80.80
2019-02-08T06:03:24.488Z,80.70
2019-02-08T06:05:53.652Z,80.60
2019-02-08T06:08:22.821Z,81.30
2019-02-08T06:10:51.964Z,82.10
2019-02-08T06:13:22.224Z,82.70
2019-02-08T06:15:51.476Z,82.70
2019-02-08T06:18:20.638Z,83.40
2019-02-08T06:20:49.895Z,83.70
2019-02-08T06:23:19.086Z,83.20
2019-02-08T06:25:48.403Z,83.40
2019-02-08T06:28:17.574Z,83.40
2019-02-08T06:30:46.718Z,84.00
2019-02-08T06:33:15.993Z,84.00
2019-02-08T06:35:45.167Z,84.10
2019-02-08T06:38:14.336Z,85.00
2019-02-08T06:40:45.227Z,85.10
2019-02-08T06:43:14.372Z,85.50
2019-02-08T06:45:43.542Z,85.50
2019-02-08T06:48:13.815Z,84.90
2019-02-08T06:50:43.049Z,85.50
2019-02-08T06:53:12.409Z,85.50
2019-02-08T06:55:41.619Z,85.50
2019-02-08T06:58:33.541Z,85.10
2019-02-08T07:01:21.895Z,84.80
2019-02-08T07:04:12.856Z,85.10
2019-02-08T07:06:56.935Z,85.80
2019-02-08T07:10:03.529Z,85.60
2019-02-08T07:12:57.968Z,85.50
2019-02-08T07:15:52.290Z,84.80
2019-02-08T07:18:40.656Z,84.60
2019-02-08T07:21:34.813Z,85.30
2019-02-08T07:24:26.379Z,84.60
2019-02-08T07:27:20.964Z,84.60
2019-02-08T07:30:12.357Z,84.40
2019-02-08T07:32:59.563Z,84.30
2019-02-08T07:35:47.745Z,84.20
2019-02-08T07:38:45.708Z,84.70
2019-02-08T07:41:46.459Z,84.40
2019-02-08T07:44:39.432Z,84.30
2019-02-08T07:47:37.008Z,83.90
2019-02-08T07:50:30.260Z,84.30
2019-02-08T07:53:21.626Z,85.30
2019-02-08T07:56:06.363Z,84.70
2019-02-08T07:58:54.355Z,84.10
2019-02-08T08:01:32.021Z,83.00
2019-02-08T08:04:25.978Z,82.30
2019-02-08T08:07:07.793Z,81.40
2019-02-08T08:09:54.828Z,81.20
2019-02-08T08:12:42.121Z,80.80
2019-02-08T08:15:38.091Z,81.00
2019-02-08T08:18:23.217Z,79.50
2019-02-08T08:21:10.783Z,80.00
2019-02-08T08:24:00.285Z,79.10
2019-02-08T08:26:50.133Z,79.30
2019-02-08T08:29:31.689Z,78.50
2019-02-08T08:32:09.389Z,77.80
2019-02-08T08:35:35.013Z,77.90
2019-02-08T08:38:49.967Z,76.20
2019-02-08T08:42:02.073Z,75.20
2019-02-08T08:45:23.148Z,72.20
2019-02-08T08:48:19.099Z,71.00
2019-02-08T08:51:28.393Z,69.00
2019-02-08T08:54:37.633Z,68.10
2019-02-08T08:57:39.807Z,67.70
2019-02-08T09:00:57.480Z,67.50
2019-02-08T09:03:53.142Z,66.90
2019-02-08T09:06:49.543Z,66.60
2019-02-08T09:09:58.740Z,67.10
2019-02-08T09:12:48.689Z,67.00
2019-02-08T09:15:51.989Z,65.50
2019-02-08T09:19:08.436Z,63.80
2019-02-08T09:22:09.437Z,60.60
2019-02-08T09:25:24.476Z,54.70
2019-02-08T09:28:25.606Z,52.40
2019-02-08T09:31:26.329Z,50.80
2019-02-08T09:34:42.549Z,48.90
2019-02-08T09:37:54.770Z,49.10
2019-02-08T09:41:00.426Z,49.90
2019-02-08T09:44:02.277Z,47.80
2019-02-08T09:47:27.528Z,46.00
2019-02-08T09:50:50.296Z,42.60
2019-02-08T09:54:03.373Z,40.20
2019-02-08T09:57:01.465Z,38.10
2019-02-08T10:00:04.900Z,35.40
2019-02-08T10:03:23.282Z,34.50
2019-02-08T10:06:19.661Z,33.60
2019-02-08T10:09:14.924Z,33.10
2019-02-08T10:12:21.236Z,31.50
2019-02-08T10:15:43.848Z,32.50
2019-02-08T10:18:58.430Z,36.60
2019-02-08T10:22:03.836Z,37.60
2019-02-08T10:25:13.025Z,33.50
2019-02-08T10:28:22.298Z,29.30
2019-02-08T10:31:31.726Z,27.80
2019-02-08T10:34:57.072Z,24.90
2019-02-08T10:38:09.639Z,23.80
2019-02-08T10:41:01.605Z,25.90
2019-02-08T10:44:39.196Z,26.50
2019-02-08T10:47:45.182Z,26.80
2019-02-08T10:50:54.548Z,26.70
2019-02-08T10:54:12.502Z,25.00
2019-02-08T10:57:50.013Z,22.80
2019-02-08T11:01:02.333Z,23.10
2019-02-08T11:04:25.876Z,22.50
2019-02-08T11:07:29.095Z,20.10
2019-02-08T11:10:30.385Z,20.40
2019-02-08T11:13:27.459Z,20.10
2019-02-08T11:16:52.231Z,18.70
2019-02-08T11:19:23.420Z,20.00
2019-02-08T11:21:53.800Z,19.10
2019-02-08T11:24:26.675Z,21.20
2019-02-08T11:26:58.043Z,20.20
2019-02-08T11:29:27.384Z,18.80
2019-02-08T11:31:56.880Z,19.80
2019-02-08T11:34:26.110Z,19.90
2019-02-08T11:36:55.479Z,20.50
2019-02-08T11:39:24.650Z,18.80
2019-02-08T11:41:54.040Z,18.40
2019-02-08T11:44:23.753Z,19.00
2019-02-08T11:46:53.298Z,17.40
2019-02-08T11:49:22.472Z,17.30
2019-02-08T11:51:51.621Z,17.50
2019-02-08T11:54:20.758Z,18.20
2019-02-08T11:56:49.924Z,17.90
2019-02-08T11:59:19.074Z,18.70
2019-02-08T12:01:50.246Z,17.40
2019-02-08T12:04:19.884Z,18.00
2019-02-08T12:06:49.117Z,20.60
2019-02-08T12:09:18.899Z,21.80
2019-02-08T12:11:48.093Z,22.40
2019-02-08T12:14:17.285Z,23.70
2019-02-08T12:16:46.573Z,25.00
2019-02-08T12:19:15.796Z,25.20
2019-02-08T12:21:45.022Z,26.00
2019-02-08T12:24:14.280Z,24.80
2019-02-08T12:26:43.432Z,24.70
2019-02-08T12:29:12.587Z,24.50
2019-02-08T12:31:41.726Z,26.10
2019-02-08T12:34:11.033Z,25.20
2019-02-08T12:36:40.192Z,23.80
2019-02-08T12:39:12.991Z,22.90
2019-02-08T12:41:42.486Z,20.80
2019-02-08T12:44:12.275Z,21.40
2019-02-08T12:46:41.429Z,19.50
2019-02-08T12:49:10.760Z,20.40
2019-02-08T12:51:40.024Z,20.50
2019-02-08T12:54:09.276Z,21.00
2019-02-08T12:56:45.464Z,22.10
2019-02-08T12:59:09.647Z,23.40
2019-02-08T13:01:38.800Z,25.70
2019-02-08T13:04:08.596Z,28.20
2019-02-08T13:06:37.867Z,30.00
2019-02-08T13:09:11.484Z,31.00
2019-02-08T13:11:40.629Z,30.00
2019-02-08T13:14:09.914Z,31.70
2019-02-08T13:16:39.101Z,33.90
2019-02-08T13:19:08.484Z,34.90
2019-02-08T13:21:37.976Z,36.30
2019-02-08T13:24:07.239Z,38.50
2019-02-08T13:26:36.391Z,39.20
2019-02-08T13:29:06.032Z,39.20
2019-02-08T13:31:35.196Z,40.50
2019-02-08T13:34:04.871Z,40.60
2019-02-08T13:36:34.329Z,41.40
2019-02-08T13:39:05.048Z,42.50
2019-02-08T13:41:34.301Z,43.10
2019-02-08T13:44:03.449Z,42.60
2019-02-08T13:46:32.624Z,41.90
2019-02-08T13:49:01.873Z,41.20
2019-02-08T13:51:31.053Z,40.70
2019-02-08T13:54:00.422Z,41.60
2019-02-08T13:56:29.596Z,41.40
2019-02-08T13:58:58.763Z,41.90
2019-02-08T14:01:27.991Z,42.10
2019-02-08T14:03:57.211Z,42.30
2019-02-08T14:06:26.416Z,43.30
2019-02-08T14:08:55.588Z,43.10
2019-02-08T14:11:24.851Z,43.40
2019-02-08T14:13:54.009Z,43.10
2019-02-08T14:16:23.195Z,43.00
2019-02-08T14:18:52.365Z,43.80
2019-02-08T14:21:21.548Z,44.20
2019-02-08T14:23:50.728Z,44.10
2019-02-08T14:26:19.938Z,45.10
2019-02-08T14:28:49.100Z,45.20
2019-02-08T14:31:18.280Z,45.90
2019-02-08T14:33:47.520Z,46.10
2019-02-08T14:36:16.694Z,46.80
2019-02-08T14:38:45.901Z,47.30
2019-02-08T14:41:15.045Z,47.50
2019-02-08T14:43:44.277Z,47.70
2019-02-08T14:46:13.510Z,48.40
2019-02-08T14:48:42.681Z,48.60
2019-02-08T14:51:12.155Z,48.50
2019-02-08T14:53:41.409Z,48.40
2019-02-08T14:56:10.561Z,48.40
2019-02-08T14:58:40.073Z,49.60
2019-02-08T15:01:09.349Z,50.10
2019-02-08T15:03:38.718Z,50.60
2019-02-08T15:06:08.052Z,49.50
2019-02-08T15:08:37.227Z,49.20
2019-02-08T15:11:06.364Z,49.40
2019-02-08T15:13:35.722Z,49.20
2019-02-08T15:16:05.352Z,49.40
2019-02-08T15:18:34.550Z,50.20
2019-02-08T15:21:03.791Z,49.80
2019-02-08T15:23:32.946Z,49.90
2019-02-08T15:26:02.138Z,50.20
2019-02-08T15:28:31.421Z,50.10
2019-02-08T15:31:00.629Z,49.90
2019-02-08T15:33:30.283Z,49.60
2019-02-08T15:35:59.599Z,49.70
2019-02-08T15:38:28.889Z,50.60
2019-02-08T15:40:58.708Z,50.50
2019-02-08T15:43:28.527Z,50.70
2019-02-08T15:46:02.702Z,51.20
2019-02-08T15:48:31.928Z,51.10
2019-02-08T15:51:01.590Z,51.00
2019-02-08T15:53:30.728Z,51.90
2019-02-08T15:56:03.791Z,51.70
2019-02-08T15:58:33.512Z,52.80
2019-02-08T16:01:02.737Z,53.40
2019-02-08T16:03:31.978Z,54.10
2019-02-08T16:06:01.268Z,54.30
2019-02-08T16:08:30.471Z,54.30
2019-02-08T16:10:59.857Z,54.60
2019-02-08T16:13:29.173Z,55.00
2019-02-08T16:15:58.428Z,55.20
2019-02-08T16:18:27.683Z,55.50
2019-02-08T16:20:56.956Z,55.90
2019-02-08T16:23:26.143Z,56.10
2019-02-08T16:25:55.366Z,56.50
2019-02-08T16:28:24.597Z,56.90
2019-02-08T16:30:53.840Z,57.00
2019-02-08T16:33:23.099Z,57.00
2019-02-08T16:35:52.252Z,57.30
2019-02-08T16:38:21.433Z,57.40
2019-02-08T16:40:50.644Z,57.50
2019-02-08T16:43:19.808Z,57.30
2019-02-08T16:45:49.248Z,57.20
2019-02-08T16:48:19.851Z,56.90
2019-02-08T16:50:49.318Z,57.00
2019-02-08T16:53:18.481Z,57.60
2019-02-08T16:55:47.605Z,58.00
2019-02-08T16:58:16.759Z,58.40
2019-02-08T17:00:46.511Z,58.90
2019-02-08T17:03:15.775Z,59.40
2019-02-08T17:05:45.218Z,59.40
2019-02-08T17:08:14.503Z,59.60
2019-02-08T17:10:43.655Z,60.30
2019-02-08T17:13:12.840Z,60.20
2019-02-08T17:15:42.014Z,61.00
2019-02-08T17:18:11.405Z,60.00
2019-02-08T17:20:42.790Z,60.00
2019-02-08T17:23:12.147Z,59.40
2019-02-08T17:25:41.424Z,59.50
2019-02-08T17:28:11.521Z,59.10
2019-02-08T17:30:40.952Z,59.20
2019-02-08T17:33:11.465Z,58.80
2019-02-08T17:35:40.632Z,58.90
2019-02-08T17:38:09.792Z,58.50
2019-02-08T17:40:41.429Z,58.10
2019-02-08T17:43:10.600Z,58.00
2019-02-08T17:45:39.838Z,58.00
2019-02-08T17:48:11.720Z,57.60
2019-02-08T17:50:40.965Z,57.30
2019-02-08T17:53:10.213Z,57.60
2019-02-08T17:55:39.452Z,57.40
2019-02-08T17:58:08.844Z,57.60
2019-02-08T18:00:59.422Z,57.60
2019-02-08T18:03:28.768Z,57.70
2019-02-08T18:05:58.151Z,57.90
2019-02-08T18:08:27.315Z,57.90
2019-02-08T18:10:56.504Z,57.20
2019-02-08T18:13:26.099Z,58.00
2019-02-08T18:15:55.394Z,59.50
2019-02-08T18:18:26.436Z,60.30
2019-02-08T18:21:01.581Z,61.10
2019-02-08T18:23:30.881Z,61.30
2019-02-08T18:26:00.160Z,61.50
2019-02-08T18:28:29.428Z,61.80
2019-02-08T18:30:58.640Z,62.10
2019-02-08T18:33:27.988Z,62.60
2019-02-08T18:35:57.554Z,62.90
2019-02-08T18:38:26.778Z,62.50
2019-02-08T18:40:55.988Z,63.00
2019-02-08T18:43:25.182Z,63.70
2019-02-08T18:45:54.355Z,63.90
2019-02-08T18:48:24.068Z,64.40
2019-02-08T18:50:54.219Z,64.60
2019-02-08T18:53:23.402Z,64.40
2019-02-08T18:55:52.549Z,64.60
2019-02-08T18:58:21.730Z,64.90
2019-02-08T19:00:51.819Z,65.10
2019-02-08T19:03:22.081Z,65.40
2019-02-08T19:05:51.237Z,65.40
2019-02-08T19:08:20.407Z,65.70
2019-02-08T19:10:49.671Z,65.90
2019-02-08T19:13:18.998Z,66.00
2019-02-08T19:15:48.137Z,66.30
2019-02-08T19:18:17.336Z,66.30
2019-02-08T19:20:46.595Z,66.10
2019-02-08T19:23:15.780Z,65.20
2019-02-08T19:25:45.444Z,64.80
2019-02-08T19:28:15.087Z,65.30
2019-02-08T19:30:44.618Z,66.00
2019-02-08T19:33:15.319Z,66.50
2019-02-08T19:35:44.472Z,66.70
2019-02-08T19:38:13.667Z,67.20
2019-02-08T19:40:44.507Z,67.60
2019-02-08T19:43:13.911Z,67.50
2019-02-08T19:45:43.457Z,68.00
2019-02-08T19:48:12.937Z,69.20
2019-02-08T19:50:43.556Z,68.40
2019-02-08T19:53:13.196Z,68.40
2019-02-08T19:55:43.060Z,67.90
2019-02-08T19:58:12.921Z,67.50
2019-02-08T20:00:43.232Z,66.70
2019-02-08T20:03:12.601Z,66.40
2019-02-08T20:05:42.219Z,66.90
2019-02-08T20:08:13.001Z,67.30
2019-02-08T20:10:44.207Z,67.60
2019-02-08T20:13:13.460Z,67.50
2019-02-08T20:15:42.878Z,67.90
2019-02-08T20:18:32.588Z,68.30
2019-02-08T20:21:01.840Z,68.30
2019-02-08T20:23:31.041Z,68.40
2019-02-08T20:26:00.432Z,68.40
2019-02-08T20:28:29.577Z,68.20
2019-02-08T20:30:58.760Z,68.30
2019-02-08T20:33:28.246Z,68.40
2019-02-08T20:35:57.767Z,68.70
2019-02-08T20:38:27.044Z,68.80
2019-02-08T20:40:56.211Z,69.00
2019-02-08T20:43:25.465Z,69.50
2019-02-08T20:45:54.886Z,69.80
2019-02-08T20:48:24.496Z,69.30
2019-02-08T20:50:53.731Z,69.40
2019-02-08T20:53:23.397Z,69.40
2019-02-08T20:55:53.648Z,69.80
2019-02-08T20:58:23.275Z,69.70
2019-02-08T21:00:54.079Z,70.30
2019-02-08T21:03:24.378Z,69.60
2019-02-08T21:05:53.820Z,69.60
2019-02-08T21:08:23.173Z,70.10
2019-02-08T21:10:52.458Z,70.40
2019-02-08T21:13:21.693Z,70.70
2019-02-08T21:15:50.954Z,70.40
2019-02-08T21:18:20.592Z,70.70
2019-02-08T21:20:49.836Z,70.70
2019-02-08T21:23:19.401Z,70.80
2019-02-08T21:25:52.183Z,70.80
2019-02-08T21:28:19.568Z,70.70
2019-02-08T21:30:48.939Z,71.20
2019-02-08T21:33:18.179Z,71.50
2019-02-08T21:35:47.334Z,71.50
2019-02-08T21:38:16.867Z,71.70
2019-02-08T21:40:46.369Z,71.40
2019-02-08T21:43:15.552Z,71.70
2019-02-08T21:45:47.690Z,71.70
2019-02-08T21:48:16.988Z,71.90
2019-02-08T21:50:46.329Z,71.70
2019-02-08T21:53:15.604Z,72.20
2019-02-08T21:55:46.418Z,72.10
2019-02-08T21:58:15.622Z,72.50
2019-02-08T22:00:45.072Z,72.30
2019-02-08T22:03:14.395Z,71.90
2019-02-08T22:05:55.857Z,72.20
2019-02-08T22:08:25.376Z,72.60
2019-02-08T22:10:54.688Z,72.40
2019-02-08T22:13:23.988Z,72.90
2019-02-08T22:15:53.269Z,73.00
2019-02-08T22:18:22.707Z,73.10
2019-02-08T22:20:52.008Z,73.10
2019-02-08T22:23:21.435Z,72.90
2019-02-08T22:25:50.620Z,72.90
2019-02-08T22:28:19.778Z,72.60
2019-02-08T22:30:48.982Z,72.90
2019-02-08T22:33:18.281Z,73.00
2019-02-08T22:35:47.640Z,73.40
2019-02-08T22:38:16.820Z,73.10
2019-02-08T22:40:46.250Z,73.00
2019-02-08T22:43:18.917Z,73.00
2019-02-08T22:45:48.229Z,73.00
2019-02-08T22:48:17.435Z,73.10
2019-02-08T22:50:46.628Z,73.00
2019-02-08T22:53:16.030Z,72.70
2019-02-08T22:55:45.268Z,72.80
2019-02-08T22:58:14.431Z,73.10
2019-02-08T23:01:20.621Z,73.10
2019-02-08T23:03:51.305Z,73.20
2019-02-08T23:06:20.499Z,73.70
2019-02-08T23:08:49.681Z,74.50
2019-02-08T23:11:19.044Z,73.70
2019-02-08T23:13:48.277Z,74.20
2019-02-08T23:16:17.558Z,74.70
2019-02-08T23:18:46.696Z,74.20
2019-02-08T23:21:15.976Z,74.20
2019-02-08T23:23:45.158Z,74.40
2019-02-08T23:26:14.421Z,74.30
2019-02-08T23:28:43.552Z,75.10
2019-02-08T23:31:12.934Z,75.00
2019-02-08T23:33:42.190Z,75.10
2019-02-08T23:36:11.350Z,74.70
2019-02-08T23:38:40.492Z,75.10
2019-02-08T23:41:09.727Z,75.40
2019-02-08T23:43:38.964Z,74.80
2019-02-08T23:46:08.096Z,74.90
2019-02-08T23:48:37.261Z,74.20
2019-02-08T23:51:06.722Z,74.80
2019-02-08T23:53:35.869Z,74.90
2019-02-08T23:56:05.540Z,74.80
2019-02-08T23:58:34.700Z,74.60
